Time;durP1;ratioP1;P1;durP2;ratioP2;P2;SDS_P1;SDS_P2;PMS_P1;PMS_P2;Temp;Humidity;BMP_temperature;BMP_pressure;BME280_temperature;BME280_humidity;BME280_pressure;Samples;Min_cycle;Max_cycle;Signal;HPM_P1;HPM_P2
2022/04/21 00:01:03;;;;;;;7.20;5.07;;;;;;;;;;4982293;28;21147;-84
2022/04/21 00:04:06;;;;;;;7.13;5.20;;;;;;;;;;4971451;28;20549;-84
2022/04/21 00:07:10;;;;;;;7.03;5.30;;;;;;;;;;4982518;28;20617;-84
2022/04/21 00:10:15;;;;;;;7.07;4.90;;;;;;;;;;4982629;28;20542;-84
2022/04/21 00:13:19;;;;;;;6.73;5.40;;;;;;;;;;4982466;28;20538;-84
2022/04/21 00:16:24;;;;;;;6.77;4.80;;;;;;;;;;4982295;28;20949;-84
2022/04/21 00:19:28;;;;;;;8.10;5.70;;;;;;;;;;4997605;28;20941;-84
2022/04/21 00:26:00;;;;;;;7.33;5.40;;;;;;;;;;4985892;28;20230;-84
2022/04/21 00:29:04;;;;;;;7.23;5.60;;;;;;;;;;4986255;28;20542;-84
2022/04/21 00:32:08;;;;;;;7.03;5.73;;;;;;;;;;4975105;28;20542;-84
2022/04/21 00:35:15;;;;;;;6.40;5.43;;;;;;;;;;4974910;28;20545;-84
2022/04/21 00:38:19;;;;;;;7.00;5.23;;;;;;;;;;4985691;28;20538;-84
2022/04/21 00:41:23;;;;;;;6.50;5.27;;;;;;;;;;4974631;28;20601;-84
2022/04/21 00:44:29;;;;;;;8.37;5.40;;;;;;;;;;4985916;28;20534;-84
2022/04/21 00:47:33;;;;;;;7.07;5.40;;;;;;;;;;4974763;28;20545;-84
2022/04/21 00:50:37;;;;;;;6.57;5.10;;;;;;;;;;4974386;28;20635;-84
2022/04/21 00:53:43;;;;;;;6.13;5.00;;;;;;;;;;4975904;28;21088;-83
2022/04/21 00:56:48;;;;;;;7.77;5.40;;;;;;;;;;4974764;28;20624;-83
2022/04/21 00:59:52;;;;;;;8.73;5.50;;;;;;;;;;4985749;28;20652;-83
2022/04/21 01:02:58;;;;;;;7.03;5.37;;;;;;;;;;4975452;28;20542;-83
2022/04/21 01:06:03;;;;;;;6.73;5.10;;;;;;;;;;4975311;28;20969;-83
2022/04/21 01:09:09;;;;;;;7.73;6.00;;;;;;;;;;4975854;28;20546;-83
2022/04/21 01:12:14;;;;;;;7.33;5.60;;;;;;;;;;4986501;28;20546;-83
2022/04/21 01:15:18;;;;;;;6.63;4.87;;;;;;;;;;4985838;28;20629;-83
2022/04/21 01:18:28;;;;;;;7.40;5.53;;;;;;;;;;4986274;28;20882;-83
2022/04/21 01:21:32;;;;;;;6.83;5.03;;;;;;;;;;4985965;28;20593;-83
2022/04/21 01:24:36;;;;;;;7.27;5.47;;;;;;;;;;4986175;28;20537;-83
2022/04/21 01:27:41;;;;;;;7.23;5.60;;;;;;;;;;4974406;28;21072;-84
2022/04/21 01:30:45;;;;;;;7.77;5.63;;;;;;;;;;4995950;28;20546;-84
2022/04/21 01:33:50;;;;;;;9.43;5.60;;;;;;;;;;4985044;28;20546;-84
2022/04/21 01:43:43;;;;;;;6.27;5.57;;;;;;;;;;4995955;28;20542;-85
2022/04/21 01:46:48;;;;;;;8.23;5.63;;;;;;;;;;4973415;28;20624;-82
2022/04/21 01:49:52;;;;;;;7.03;5.73;;;;;;;;;;4996411;28;20542;-82
2022/04/21 01:52:58;;;;;;;5.97;4.80;;;;;;;;;;4996201;28;20549;-82
2022/04/21 01:56:02;;;;;;;6.80;5.03;;;;;;;;;;4984857;28;20625;-82
2022/04/21 01:59:06;;;;;;;6.47;4.83;;;;;;;;;;4984816;28;20648;-82
2022/04/21 02:02:10;;;;;;;10.70;5.10;;;;;;;;;;4973847;28;20537;-82
2022/04/21 02:05:15;;;;;;;7.87;5.70;;;;;;;;;;4973689;28;21088;-82
2022/04/21 02:08:19;;;;;;;7.17;5.17;;;;;;;;;;4973712;28;20883;-82
2022/04/21 02:11:23;;;;;;;10.17;6.03;;;;;;;;;;4984753;28;20546;-81
2022/04/21 02:14:27;;;;;;;8.83;5.33;;;;;;;;;;4996026;28;20541;-81
2022/04/21 02:17:32;;;;;;;7.63;5.37;;;;;;;;;;4973522;28;20600;-82
2022/04/21 02:20:36;;;;;;;7.87;5.50;;;;;;;;;;4973408;28;20652;-82
2022/04/21 02:23:40;;;;;;;7.33;5.87;;;;;;;;;;4973287;28;20542;-82
2022/04/21 02:26:45;;;;;;;6.63;5.37;;;;;;;;;;4973113;28;20632;-82
2022/04/21 02:29:52;;;;;;;7.00;5.70;;;;;;;;;;4972924;28;20538;-86
2022/04/21 02:32:56;;;;;;;7.60;5.43;;;;;;;;;;4984016;28;20542;-86
2022/04/21 02:36:00;;;;;;;8.03;6.00;;;;;;;;;;4972517;28;20624;-86
2022/04/21 02:39:04;;;;;;;7.67;5.20;;;;;;;;;;4972591;28;20541;-86
2022/04/21 02:42:09;;;;;;;6.83;5.63;;;;;;;;;;4983599;28;20549;-86
2022/04/21 02:45:14;;;;;;;7.33;5.13;;;;;;;;;;4995024;28;20553;-82
2022/04/21 02:48:18;;;;;;;7.23;5.93;;;;;;;;;;4983926;28;20546;-82
2022/04/21 02:51:23;;;;;;;8.27;6.00;;;;;;;;;;4984367;28;20546;-82
2022/04/21 02:57:51;;;;;;;7.70;5.77;;;;;;;;;;4983704;28;20542;-82
2022/04/21 03:00:55;;;;;;;8.53;6.17;;;;;;;;;;4995056;28;20594;-82
2022/04/21 03:03:59;;;;;;;7.53;5.80;;;;;;;;;;4983665;28;20882;-82
2022/04/21 03:07:03;;;;;;;8.03;5.93;;;;;;;;;;4983645;28;20981;-82
2022/04/21 03:10:08;;;;;;;9.07;6.10;;;;;;;;;;4972631;28;20593;-81
2022/04/21 03:13:12;;;;;;;8.50;5.53;;;;;;;;;;4972419;28;20542;-81
2022/04/21 03:16:16;;;;;;;8.37;5.90;;;;;;;;;;4994886;28;20628;-82
2022/04/21 03:19:21;;;;;;;7.73;5.53;;;;;;;;;;4974073;28;20542;-81
2022/04/21 03:25:48;;;;;;;7.77;6.27;;;;;;;;;;5018655;22;20644;-83
2022/04/21 03:28:52;;;;;;;9.73;6.77;;;;;;;;;;4984568;28;20542;-83
2022/04/21 03:31:56;;;;;;;8.80;6.20;;;;;;;;;;4983441;28;20554;-86
2022/04/21 03:35:01;;;;;;;7.53;5.90;;;;;;;;;;4983417;28;20206;-85
2022/04/21 03:38:05;;;;;;;10.73;6.70;;;;;;;;;;4953903;28;20187;-85
2022/04/21 03:41:10;;;;;;;6.83;5.70;;;;;;;;;;4953743;28;20206;-88
2022/04/21 03:44:14;;;;;;;7.30;5.70;;;;;;;;;;4952268;28;20198;-86
2022/04/21 03:47:18;;;;;;;8.33;6.10;;;;;;;;;;4952697;28;20218;-88
2022/04/21 03:50:23;;;;;;;8.90;6.00;;;;;;;;;;4953569;28;20175;-85
2022/04/21 03:53:26;;;;;;;8.30;6.00;;;;;;;;;;4963217;28;20198;-88
2022/04/21 03:56:32;;;;;;;7.87;6.13;;;;;;;;;;4963948;28;20218;-84
2022/04/21 03:59:36;;;;;;;7.30;6.40;;;;;;;;;;4953111;28;20187;-83
2022/04/21 04:02:40;;;;;;;8.47;6.40;;;;;;;;;;4964410;28;20179;-88
2022/04/21 04:05:44;;;;;;;11.30;6.97;;;;;;;;;;4953640;28;20178;-83
2022/04/21 04:12:13;;;;;;;8.70;7.37;;;;;;;;;;4970391;28;20203;-86
2022/04/21 04:15:17;;;;;;;8.40;6.70;;;;;;;;;;4963623;28;20179;-84
2022/04/21 04:18:22;;;;;;;9.03;6.60;;;;;;;;;;4965040;28;20187;-84
2022/04/21 04:21:26;;;;;;;7.57;6.13;;;;;;;;;;4963161;28;20207;-85
2022/04/21 04:24:30;;;;;;;10.73;6.70;;;;;;;;;;4963712;28;20183;-85
2022/04/21 04:27:36;;;;;;;9.53;6.80;;;;;;;;;;4963372;28;20221;-88
2022/04/21 04:30:42;;;;;;;8.27;6.57;;;;;;;;;;4952919;28;20179;-86
2022/04/21 04:33:46;;;;;;;10.80;6.93;;;;;;;;;;4963359;28;20182;-88
2022/04/21 04:36:52;;;;;;;8.63;6.17;;;;;;;;;;4963628;28;20218;-87
2022/04/21 04:39:59;;;;;;;10.27;6.33;;;;;;;;;;4963504;28;20555;-84
2022/04/21 04:43:03;;;;;;;10.07;6.53;;;;;;;;;;4966246;28;20638;-84
2022/04/21 04:49:44;;;;;;;10.40;6.87;;;;;;;;;;4962739;28;20669;-83
2022/04/21 04:52:48;;;;;;;11.30;6.90;;;;;;;;;;4962432;28;20191;-86
2022/04/21 04:55:52;;;;;;;9.90;7.20;;;;;;;;;;4962598;28;20223;-86
2022/04/21 04:58:57;;;;;;;11.90;7.70;;;;;;;;;;4962801;28;20527;-86
2022/04/21 05:02:01;;;;;;;10.23;7.13;;;;;;;;;;4973624;28;20194;-86
2022/04/21 05:05:06;;;;;;;9.60;7.27;;;;;;;;;;4966215;28;20187;-86
2022/04/21 05:08:10;;;;;;;13.93;8.10;;;;;;;;;;4966131;28;20179;-86
2022/04/21 05:11:14;;;;;;;10.13;7.70;;;;;;;;;;4955033;28;20539;-86
2022/04/21 05:14:19;;;;;;;9.27;7.47;;;;;;;;;;4966248;28;20198;-86
2022/04/21 05:17:24;;;;;;;11.03;8.33;;;;;;;;;;4955018;28;20720;-86
2022/04/21 05:20:28;;;;;;;9.83;8.03;;;;;;;;;;4965730;28;20210;-86
2022/04/21 05:23:34;;;;;;;11.13;8.03;;;;;;;;;;4966604;28;20526;-83
2022/04/21 05:26:40;;;;;;;12.23;9.43;;;;;;;;;;4954495;28;20292;-87
2022/04/21 05:33:10;;;;;;;11.80;9.50;;;;;;;;;;4965032;28;20519;-87
2022/04/21 05:36:15;;;;;;;15.73;10.30;;;;;;;;;;4965132;28;20222;-83
2022/04/21 05:39:19;;;;;;;15.17;11.83;;;;;;;;;;4953767;28;20205;-83
2022/04/21 05:42:23;;;;;;;15.40;12.10;;;;;;;;;;4953417;28;20212;-83
2022/04/21 05:45:28;;;;;;;14.73;10.20;;;;;;;;;;4953499;28;20196;-83
2022/04/21 05:48:32;;;;;;;13.20;10.30;;;;;;;;;;4975700;28;20186;-83
2022/04/21 05:51:37;;;;;;;14.00;10.33;;;;;;;;;;4953462;28;20185;-83
2022/04/21 05:54:41;;;;;;;11.30;9.47;;;;;;;;;;4953588;28;20221;-83
2022/04/21 05:57:45;;;;;;;12.13;9.97;;;;;;;;;;4964614;28;20218;-83
2022/04/21 06:00:49;;;;;;;11.80;9.80;;;;;;;;;;4953691;28;20531;-83
2022/04/21 06:03:53;;;;;;;14.13;11.53;;;;;;;;;;4953763;28;20183;-85
2022/04/21 06:06:59;;;;;;;15.57;10.53;;;;;;;;;;4975122;28;20215;-83
2022/04/21 06:10:03;;;;;;;13.67;10.00;;;;;;;;;;4964065;28;20186;-86
2022/04/21 06:13:08;;;;;;;11.20;10.00;;;;;;;;;;4975119;28;20186;-86
2022/04/21 06:16:11;;;;;;;14.00;10.27;;;;;;;;;;4963225;28;20225;-85
2022/04/21 06:19:16;;;;;;;11.97;9.53;;;;;;;;;;4953066;28;20190;-87
2022/04/21 06:22:20;;;;;;;11.37;9.70;;;;;;;;;;4963728;28;20207;-86
2022/04/21 06:25:24;;;;;;;24.00;11.67;;;;;;;;;;4975193;28;20198;-87
2022/04/21 06:28:10;;;;;;;10.97;9.37;;;;;;;;;;5127365;27;21112;-88
2022/04/21 06:31:15;;;;;;;12.83;10.27;;;;;;;;;;5087528;28;20582;-85
2022/04/21 06:34:19;;;;;;;13.43;10.30;;;;;;;;;;5087937;28;20178;-88
2022/04/21 06:37:23;;;;;;;11.07;9.57;;;;;;;;;;5085773;28;20214;-86
2022/04/21 06:40:27;;;;;;;11.40;9.10;;;;;;;;;;5091090;28;20183;-86
2022/04/21 06:50:17;;;;;;;9.97;8.70;;;;;;;;;;5090793;28;20187;-86
2022/04/21 06:53:21;;;;;;;12.50;8.63;;;;;;;;;;5078459;28;20183;-86
2022/04/21 06:56:25;;;;;;;11.83;9.10;;;;;;;;;;5078261;28;20210;-86
2022/04/21 06:59:29;;;;;;;14.30;9.03;;;;;;;;;;5089848;28;20179;-86
2022/04/21 07:02:37;;;;;;;11.13;8.23;;;;;;;;;;5078375;28;20556;-86
2022/04/21 07:05:42;;;;;;;12.90;8.43;;;;;;;;;;5089575;28;20194;-87
2022/04/21 07:08:47;;;;;;;9.73;8.00;;;;;;;;;;5089596;28;20163;-84
2022/04/21 07:11:50;;;;;;;9.40;8.00;;;;;;;;;;5090089;28;20545;-88
2022/04/21 07:14:59;;;;;;;10.10;7.83;;;;;;;;;;5090654;28;20183;-84
2022/04/21 07:18:03;;;;;;;10.00;8.20;;;;;;;;;;5089912;28;20186;-84
2022/04/21 07:21:09;;;;;;;12.97;8.47;;;;;;;;;;5102273;28;20179;-83
2022/04/21 07:24:13;;;;;;;10.13;8.03;;;;;;;;;;5090118;28;20175;-84
2022/04/21 07:27:17;;;;;;;9.00;7.93;;;;;;;;;;5089307;28;20223;-84
2022/04/21 07:30:22;;;;;;;8.57;7.33;;;;;;;;;;5089697;28;20518;-82
2022/04/21 07:33:26;;;;;;;9.70;7.37;;;;;;;;;;5089372;28;20183;-82
2022/04/21 07:36:30;;;;;;;9.53;8.00;;;;;;;;;;5089327;28;20212;-82
2022/04/21 07:39:38;;;;;;;8.83;7.53;;;;;;;;;;5075971;28;20638;-82
2022/04/21 07:42:44;;;;;;;8.93;7.60;;;;;;;;;;5064700;28;20183;-83
2022/04/21 07:45:52;;;;;;;8.07;7.20;;;;;;;;;;5064270;28;20626;-83
2022/04/21 07:55:52;;;;;;;9.17;7.20;;;;;;;;;;5075758;28;20211;-83
2022/04/21 07:58:56;;;;;;;8.50;7.40;;;;;;;;;;5075887;28;20179;-83
2022/04/21 08:02:01;;;;;;;7.97;6.87;;;;;;;;;;5084955;28;20175;-83
2022/04/21 08:05:06;;;;;;;10.00;7.70;;;;;;;;;;5076788;28;20179;-83
2022/04/21 08:08:11;;;;;;;7.77;6.97;;;;;;;;;;5086802;28;20199;-83
2022/04/21 08:11:15;;;;;;;9.07;7.07;;;;;;;;;;5075025;28;20184;-83
2022/04/21 08:14:20;;;;;;;7.20;6.43;;;;;;;;;;5075085;28;20175;-82
2022/04/21 08:17:24;;;;;;;8.73;7.00;;;;;;;;;;5074876;28;20211;-82
2022/04/21 08:20:30;;;;;;;10.43;7.03;;;;;;;;;;5074896;28;20184;-82
2022/04/21 08:23:37;;;;;;;8.20;6.50;;;;;;;;;;5074951;28;20673;-82
2022/04/21 08:33:27;;;;;;;9.47;7.27;;;;;;;;;;5074812;28;20179;-83
2022/04/21 08:36:31;;;;;;;9.73;7.00;;;;;;;;;;5074351;28;20215;-83
2022/04/21 08:39:35;;;;;;;9.80;6.13;;;;;;;;;;5086465;28;20183;-83
2022/04/21 08:42:40;;;;;;;8.87;6.67;;;;;;;;;;5074409;28;20626;-83
2022/04/21 08:45:47;;;;;;;8.47;6.60;;;;;;;;;;5074317;28;20244;-83
2022/04/21 08:48:52;;;;;;;8.00;6.83;;;;;;;;;;5086074;28;20183;-83
2022/04/21 08:51:56;;;;;;;7.97;7.17;;;;;;;;;;5086139;28;20180;-83
2022/04/21 08:55:02;;;;;;;7.83;6.80;;;;;;;;;;5074494;28;20179;-82
2022/04/21 08:58:06;;;;;;;11.90;7.07;;;;;;;;;;5085592;28;20195;-83
2022/04/21 09:01:11;;;;;;;9.87;7.00;;;;;;;;;;5074164;28;20179;-83
2022/04/21 09:04:15;;;;;;;6.90;6.20;;;;;;;;;;5063220;28;20195;-83
2022/04/21 09:07:21;;;;;;;13.33;6.90;;;;;;;;;;5073540;28;20215;-83
2022/04/21 09:10:28;;;;;;;8.43;6.50;;;;;;;;;;5074224;28;20642;-83
2022/04/21 09:13:43;;;;;;;8.33;6.27;;;;;;;;;;5074206;28;20546;-83
2022/04/21 09:16:48;;;;;;;9.33;6.80;;;;;;;;;;5062147;28;20689;-84
2022/04/21 09:19:59;;;;;;;7.10;6.40;;;;;;;;;;5074476;28;20183;-83
2022/04/21 09:23:06;;;;;;;7.73;6.27;;;;;;;;;;5074890;28;20539;-84
2022/04/21 09:26:15;;;;;;;7.85;6.70;;;;;;;;;;5096441;22;20559;-83
2022/04/21 09:29:24;;;;;;;10.13;6.40;;;;;;;;;;5003665;28;20209;-83
2022/04/21 09:32:28;;;;;;;7.07;6.07;;;;;;;;;;5014653;28;20182;-83
2022/04/21 09:35:33;;;;;;;6.50;5.57;;;;;;;;;;5026301;28;20182;-83
2022/04/21 09:38:38;;;;;;;6.37;5.70;;;;;;;;;;4983787;28;20633;-83
2022/04/21 09:41:44;;;;;;;7.13;6.00;;;;;;;;;;4983728;28;20174;-84
2022/04/21 09:48:10;;;;;;;6.30;5.70;;;;;;;;;;5005439;28;20229;-84
2022/04/21 09:51:17;;;;;;;8.37;6.30;;;;;;;;;;4983441;28;20186;-84
2022/04/21 09:54:28;;;;;;;6.80;5.90;;;;;;;;;;4982887;28;20179;-84
2022/04/21 09:57:34;;;;;;;7.33;6.50;;;;;;;;;;4982731;28;20214;-84
2022/04/21 10:00:39;;;;;;;8.83;5.77;;;;;;;;;;4982560;28;20174;-84
2022/04/21 10:03:44;;;;;;;6.23;5.63;;;;;;;;;;5005171;28;20182;-84
2022/04/21 10:06:48;;;;;;;6.27;5.03;;;;;;;;;;4982788;28;20218;-83
2022/04/21 10:09:54;;;;;;;6.60;5.90;;;;;;;;;;4983380;28;20181;-84
2022/04/21 10:13:00;;;;;;;6.90;5.73;;;;;;;;;;5005846;28;20178;-84
2022/04/21 10:16:06;;;;;;;8.93;5.43;;;;;;;;;;4995451;28;20182;-83
2022/04/21 10:19:12;;;;;;;6.37;5.77;;;;;;;;;;4983297;28;20178;-84
2022/04/21 10:22:18;;;;;;;6.17;5.57;;;;;;;;;;4983275;28;20186;-84
2022/04/21 10:25:36;;;;;;;7.07;6.00;;;;;;;;;;4983523;28;20507;-84
2022/04/21 10:28:42;;;;;;;7.60;5.60;;;;;;;;;;4983443;28;20206;-84
2022/04/21 10:32:04;;;;;;;7.03;5.83;;;;;;;;;;4971908;28;20178;-84
2022/04/21 10:35:19;;;;;;;8.90;6.07;;;;;;;;;;4983240;28;20186;-84
2022/04/21 10:38:25;;;;;;;7.73;5.83;;;;;;;;;;4982461;28;20214;-87
2022/04/21 10:41:36;;;;;;;7.00;6.27;;;;;;;;;;4982642;28;20182;-85
2022/04/21 10:45:11;;;;;;;10.53;6.20;;;;;;;;;;4983296;28;20174;-84
2022/04/21 10:48:16;;;;;;;8.00;6.40;;;;;;;;;;4993803;28;20225;-85
2022/04/21 10:58:34;;;;;;;7.13;4.93;;;;;;;;;;4995025;28;20179;-84
2022/04/21 11:01:38;;;;;;;7.33;6.47;;;;;;;;;;4983143;28;20190;-85
2022/04/21 11:04:42;;;;;;;6.47;5.87;;;;;;;;;;4993079;28;20194;-85
2022/04/21 11:07:51;;;;;;;7.17;6.30;;;;;;;;;;4992973;28;20222;-85
2022/04/21 11:10:55;;;;;;;6.17;5.67;;;;;;;;;;4993454;28;20186;-85
2022/04/21 11:14:06;;;;;;;7.37;5.43;;;;;;;;;;4984381;28;20190;-85
2022/04/21 11:17:10;;;;;;;7.83;5.77;;;;;;;;;;4985564;28;20218;-86
2022/04/21 11:20:27;;;;;;;7.67;6.03;;;;;;;;;;4985959;28;20525;-86
2022/04/21 11:23:31;;;;;;;8.67;6.87;;;;;;;;;;4985567;28;20546;-86
2022/04/21 11:26:46;;;;;;;7.70;6.13;;;;;;;;;;4996554;28;20233;-86
2022/04/21 11:29:51;;;;;;;8.97;5.60;;;;;;;;;;4985428;28;20506;-86
2022/04/21 11:32:55;;;;;;;16.30;6.47;;;;;;;;;;4985157;28;20181;-87
2022/04/21 11:36:04;;;;;;;10.43;5.83;;;;;;;;;;4996335;28;20182;-86
2022/04/21 11:39:08;;;;;;;6.00;5.40;;;;;;;;;;4995956;28;20190;-86
2022/04/21 11:42:24;;;;;;;6.47;5.87;;;;;;;;;;4973926;28;20656;-86
2022/04/21 11:45:35;;;;;;;7.17;6.43;;;;;;;;;;4974410;28;20187;-85
2022/04/21 11:48:41;;;;;;;6.73;5.97;;;;;;;;;;4996241;28;20218;-85
2022/04/21 11:51:52;;;;;;;5.70;5.20;;;;;;;;;;4985416;28;20186;-85
2022/04/21 11:55:04;;;;;;;9.20;5.90;;;;;;;;;;4985919;28;20182;-86
2022/04/21 11:58:10;;;;;;;8.67;5.60;;;;;;;;;;4996310;28;20209;-86
2022/04/21 12:08:00;;;;;;;8.80;6.43;;;;;;;;;;5007660;28;20233;-85
2022/04/21 12:11:09;;;;;;;7.70;5.43;;;;;;;;;;4974405;28;20178;-85
2022/04/21 12:15:01;;;;;;;6.03;5.40;;;;;;;;;;4996675;28;20202;-86
2022/04/21 12:18:06;;;;;;;5.63;5.00;;;;;;;;;;4995927;28;20218;-86
2022/04/21 12:21:13;;;;;;;5.70;5.10;;;;;;;;;;4985209;28;20182;-86
2022/04/21 12:24:29;;;;;;;6.10;5.50;;;;;;;;;;4995885;28;20178;-86
2022/04/21 12:27:38;;;;;;;7.93;5.97;;;;;;;;;;4973478;28;20230;-85
2022/04/21 12:30:42;;;;;;;6.57;5.93;;;;;;;;;;4984764;28;20202;-85
2022/04/21 12:33:49;;;;;;;9.83;6.27;;;;;;;;;;4995800;28;20186;-86
2022/04/21 12:36:58;;;;;;;8.20;5.73;;;;;;;;;;4985360;28;20214;-85
2022/04/21 12:40:13;;;;;;;6.50;4.87;;;;;;;;;;4998019;28;20194;-85
2022/04/21 12:43:22;;;;;;;5.77;5.17;;;;;;;;;;4985975;28;20186;-88
2022/04/21 12:46:29;;;;;;;6.60;5.83;;;;;;;;;;4998059;28;20218;-85
2022/04/21 12:49:52;;;;;;;6.60;5.83;;;;;;;;;;4985147;28;20210;-86
2022/04/21 12:52:57;;;;;;;8.87;5.73;;;;;;;;;;4986722;28;20626;-86
2022/04/21 12:56:09;;;;;;;9.70;5.87;;;;;;;;;;4973600;28;20183;-86
2022/04/21 12:59:13;;;;;;;6.10;5.20;;;;;;;;;;4996061;28;20182;-85
2022/04/21 13:02:20;;;;;;;6.50;5.03;;;;;;;;;;4973515;28;20197;-84
2022/04/21 13:05:25;;;;;;;7.90;5.70;;;;;;;;;;4984276;28;20198;-86
2022/04/21 13:08:29;;;;;;;6.60;5.60;;;;;;;;;;4995912;28;20558;-84
2022/04/21 13:11:34;;;;;;;6.07;5.37;;;;;;;;;;4978439;28;20175;-85
2022/04/21 13:14:38;;;;;;;6.07;5.57;;;;;;;;;;4998970;28;20182;-85
2022/04/21 13:17:42;;;;;;;7.43;5.20;;;;;;;;;;4984537;28;20680;-85
2022/04/21 13:24:09;;;;;;;4.97;4.37;;;;;;;;;;4996588;28;20187;-85
2022/04/21 13:27:16;;;;;;;5.50;5.00;;;;;;;;;;4984424;28;20226;-85
2022/04/21 13:30:20;;;;;;;8.37;6.13;;;;;;;;;;4985193;28;20194;-84
2022/04/21 13:33:24;;;;;;;9.73;5.27;;;;;;;;;;4996686;28;20197;-85
2022/04/21 13:36:29;;;;;;;8.63;6.07;;;;;;;;;;4985733;28;20221;-85
2022/04/21 13:39:35;;;;;;;5.53;4.77;;;;;;;;;;4987627;28;20174;-84
2022/04/21 13:42:40;;;;;;;6.30;5.70;;;;;;;;;;4973233;28;20197;-86
2022/04/21 13:45:44;;;;;;;6.13;5.57;;;;;;;;;;4972264;28;20178;-86
2022/04/21 13:48:49;;;;;;;5.67;5.10;;;;;;;;;;4994216;28;20213;-87
2022/04/21 13:51:53;;;;;;;6.50;5.80;;;;;;;;;;4983060;28;20187;-87
2022/04/21 13:54:57;;;;;;;7.07;5.70;;;;;;;;;;4982977;28;20182;-86
2022/04/21 13:58:01;;;;;;;6.17;5.57;;;;;;;;;;4993820;28;20221;-87
2022/04/21 14:01:05;;;;;;;9.07;6.30;;;;;;;;;;4982818;28;20637;-86
2022/04/21 14:04:11;;;;;;;7.83;6.07;;;;;;;;;;5005604;28;20181;-86
2022/04/21 14:07:15;;;;;;;9.10;6.43;;;;;;;;;;4994126;28;20221;-85
2022/04/21 14:10:20;;;;;;;7.53;5.97;;;;;;;;;;4994635;28;20672;-85
2022/04/21 14:13:25;;;;;;;6.73;6.03;;;;;;;;;;4994393;28;20174;-86
2022/04/21 14:16:31;;;;;;;8.77;5.87;;;;;;;;;;4982670;28;20214;-85
2022/04/21 14:19:37;;;;;;;7.60;5.90;;;;;;;;;;4984686;28;20182;-86
2022/04/21 14:22:41;;;;;;;6.80;6.10;;;;;;;;;;4983764;28;20182;-86
2022/04/21 14:25:46;;;;;;;7.40;6.57;;;;;;;;;;4972368;28;20655;-86
2022/04/21 14:28:50;;;;;;;6.70;6.10;;;;;;;;;;4994284;28;20206;-86
2022/04/21 14:31:55;;;;;;;8.07;6.37;;;;;;;;;;4973792;28;20201;-86
2022/04/21 14:34:58;;;;;;;6.87;6.00;;;;;;;;;;4994529;28;20249;-86
2022/04/21 14:45:08;;;;;;;7.67;6.50;;;;;;;;;;4992211;28;20569;-86
2022/04/21 14:48:12;;;;;;;7.90;6.50;;;;;;;;;;4995017;28;20688;-86
2022/04/21 14:51:16;;;;;;;8.43;6.30;;;;;;;;;;4986172;28;20181;-86
2022/04/21 14:54:21;;;;;;;6.67;5.97;;;;;;;;;;4986561;28;20182;-86
2022/04/21 14:57:25;;;;;;;8.17;6.30;;;;;;;;;;4967374;28;20685;-86
2022/04/21 15:00:29;;;;;;;10.53;6.23;;;;;;;;;;4967459;28;20179;-86
2022/04/21 15:03:36;;;;;;;6.37;5.70;;;;;;;;;;4967144;28;20183;-86
2022/04/21 15:06:47;;;;;;;6.93;6.23;;;;;;;;;;4966785;28;20214;-86
2022/04/21 15:09:51;;;;;;;6.60;5.50;;;;;;;;;;4977803;28;20214;-87
2022/04/21 15:12:55;;;;;;;8.60;5.50;;;;;;;;;;4966799;28;20515;-86
2022/04/21 15:16:00;;;;;;;6.43;5.57;;;;;;;;;;4966877;28;20187;-86
2022/04/21 15:19:04;;;;;;;7.10;5.30;;;;;;;;;;4966807;28;20178;-86
2022/04/21 15:22:08;;;;;;;6.83;5.23;;;;;;;;;;4967240;28;20511;-86
2022/04/21 15:25:12;;;;;;;8.07;6.03;;;;;;;;;;4966597;28;20527;-86
2022/04/21 15:28:16;;;;;;;6.50;5.90;;;;;;;;;;4956081;28;20570;-86
2022/04/21 15:31:22;;;;;;;11.10;6.07;;;;;;;;;;4977374;28;20673;-87
2022/04/21 15:34:26;;;;;;;7.50;6.07;;;;;;;;;;4965970;28;20186;-87
2022/04/21 15:37:31;;;;;;;7.10;5.70;;;;;;;;;;4954988;28;20222;-87
2022/04/21 15:40:36;;;;;;;8.00;5.30;;;;;;;;;;4966295;28;20614;-87
2022/04/21 15:43:40;;;;;;;9.60;5.03;;;;;;;;;;4977532;28;20187;-85
2022/04/21 15:46:44;;;;;;;7.27;5.73;;;;;;;;;;4966659;28;20218;-87
2022/04/21 15:49:48;;;;;;;6.97;5.30;;;;;;;;;;4966430;28;20226;-88
2022/04/21 15:52:55;;;;;;;5.80;4.87;;;;;;;;;;4966006;28;20543;-85
2022/04/21 15:59:22;;;;;;;10.40;4.83;;;;;;;;;;4966819;28;20175;-87
2022/04/21 16:02:25;;;;;;;7.67;5.50;;;;;;;;;;4966848;28;20515;-88
2022/04/21 16:05:33;;;;;;;6.13;5.17;;;;;;;;;;4971531;28;20186;-87
2022/04/21 16:08:37;;;;;;;5.97;5.20;;;;;;;;;;4975760;28;20178;-86
2022/04/21 16:11:41;;;;;;;6.87;4.83;;;;;;;;;;4976720;28;20178;-85
2022/04/21 16:14:55;;;;;;;6.77;5.30;;;;;;;;;;4973936;28;20182;-89
2022/04/21 16:18:02;;;;;;;13.17;6.27;;;;;;;;;;4986927;28;20222;-89
2022/04/21 16:21:07;;;;;;;6.40;5.70;;;;;;;;;;4985380;28;20174;-89
2022/04/21 16:24:11;;;;;;;8.03;5.50;;;;;;;;;;4985138;28;20198;-90
2022/04/21 16:27:15;;;;;;;9.20;6.67;;;;;;;;;;4973964;28;20217;-89
2022/04/21 16:30:19;;;;;;;7.93;5.60;;;;;;;;;;4973982;28;20206;-90
2022/04/21 16:33:23;;;;;;;5.83;5.23;;;;;;;;;;4995916;28;20654;-90
2022/04/21 16:36:27;;;;;;;8.23;5.60;;;;;;;;;;4984795;28;20222;-89
2022/04/21 16:39:32;;;;;;;9.00;5.90;;;;;;;;;;4984870;28;20194;-88
2022/04/21 16:42:36;;;;;;;6.60;5.90;;;;;;;;;;4984436;28;20198;-88
2022/04/21 16:45:42;;;;;;;6.70;5.87;;;;;;;;;;4984419;28;20182;-88
2022/04/21 16:49:04;;;;;;;5.97;5.37;;;;;;;;;;4996058;28;20638;-90
2022/04/21 16:52:08;;;;;;;8.70;5.60;;;;;;;;;;4983949;28;20182;-88
2022/04/21 16:55:13;;;;;;;6.53;5.53;;;;;;;;;;4973799;28;20182;-88
2022/04/21 16:58:17;;;;;;;9.30;5.97;;;;;;;;;;4985379;28;20569;-89
2022/04/21 17:04:43;;;;;;;8.63;5.73;;;;;;;;;;4984141;28;20629;-89
2022/04/21 17:07:51;;;;;;;6.63;4.83;;;;;;;;;;4983879;28;20221;-90
2022/04/21 17:10:55;;;;;;;6.20;5.60;;;;;;;;;;4972432;28;20214;-88
2022/04/21 17:13:59;;;;;;;6.07;5.20;;;;;;;;;;4983999;28;20182;-88
2022/04/21 17:17:04;;;;;;;7.90;6.07;;;;;;;;;;4983810;28;20213;-89
2022/04/21 17:20:09;;;;;;;6.27;5.67;;;;;;;;;;4984452;28;20194;-88
2022/04/21 17:23:13;;;;;;;5.90;5.13;;;;;;;;;;4995335;28;20206;-87
2022/04/21 17:26:17;;;;;;;6.47;5.07;;;;;;;;;;4998521;28;20186;-88
2022/04/21 17:29:21;;;;;;;7.53;5.43;;;;;;;;;;4974200;28;20588;-88
2022/04/21 17:32:25;;;;;;;7.37;5.27;;;;;;;;;;4996981;28;20186;-86
2022/04/21 17:35:30;;;;;;;7.70;5.47;;;;;;;;;;4983966;28;20206;-89
2022/04/21 17:38:34;;;;;;;8.50;5.60;;;;;;;;;;4972115;28;20194;-88
2022/04/21 17:41:39;;;;;;;9.27;5.87;;;;;;;;;;4972893;28;20178;-88
2022/04/21 17:44:43;;;;;;;5.87;4.60;;;;;;;;;;4983011;28;20186;-87
2022/04/21 17:47:47;;;;;;;7.63;4.83;;;;;;;;;;4984244;28;20222;-87
2022/04/21 17:50:51;;;;;;;6.40;4.80;;;;;;;;;;4995212;28;20210;-87
2022/04/21 17:53:56;;;;;;;8.30;5.27;;;;;;;;;;4984079;28;20178;-89
2022/04/21 17:57:00;;;;;;;8.20;5.80;;;;;;;;;;4983559;28;20734;-88
2022/04/21 18:00:05;;;;;;;8.20;7.40;;;;;;;;;;4987372;28;20178;-88
2022/04/21 18:03:13;;;;;;;12.87;8.53;;;;;;;;;;4994309;28;20187;-88
2022/04/21 18:06:19;;;;;;;5.47;4.40;;;;;;;;;;4983195;28;20692;-89
2022/04/21 18:09:23;;;;;;;9.30;6.77;;;;;;;;;;4995489;28;20182;-88
2022/04/21 18:12:28;;;;;;;5.03;4.30;;;;;;;;;;4983439;28;20186;-87
2022/04/21 18:15:32;;;;;;;11.40;6.87;;;;;;;;;;4972356;28;20178;-87
2022/04/21 18:18:36;;;;;;;10.70;8.70;;;;;;;;;;4982935;28;20515;-88
2022/04/21 18:21:42;;;;;;;12.13;10.30;;;;;;;;;;4983036;28;20178;-89
2022/04/21 18:24:48;;;;;;;19.87;15.53;;;;;;;;;;4994354;28;20637;-89
2022/04/21 18:27:52;;;;;;;14.10;7.40;;;;;;;;;;4971332;28;20225;-89
2022/04/21 18:30:56;;;;;;;6.33;5.30;;;;;;;;;;4971929;28;20225;-89
2022/04/21 18:34:05;;;;;;;10.17;5.00;;;;;;;;;;4982416;28;20205;-89
2022/04/21 18:37:10;;;;;;;6.13;4.80;;;;;;;;;;4982335;28;20217;-89
2022/04/21 18:40:14;;;;;;;9.50;4.03;;;;;;;;;;4982537;28;20178;-89
2022/04/21 18:43:18;;;;;;;7.93;4.47;;;;;;;;;;4982445;28;20202;-88
2022/04/21 18:46:23;;;;;;;7.00;4.73;;;;;;;;;;4982270;28;20253;-89
2022/04/21 18:49:27;;;;;;;5.83;4.70;;;;;;;;;;4970992;28;20193;-89
2022/04/21 18:52:31;;;;;;;5.73;4.50;;;;;;;;;;4971710;28;20198;-88
2022/04/21 18:55:35;;;;;;;5.00;4.30;;;;;;;;;;4971357;28;20182;-89
2022/04/21 18:58:41;;;;;;;9.60;6.03;;;;;;;;;;4982457;28;20182;-87
2022/04/21 19:01:46;;;;;;;5.43;4.37;;;;;;;;;;4982035;28;20194;-89
2022/04/21 19:04:50;;;;;;;6.33;4.37;;;;;;;;;;4994303;28;20187;-88
2022/04/21 19:07:54;;;;;;;5.30;3.77;;;;;;;;;;4982429;28;20222;-90
2022/04/21 19:10:58;;;;;;;7.20;4.10;;;;;;;;;;4981961;28;20213;-89
2022/04/21 19:14:04;;;;;;;5.97;4.03;;;;;;;;;;4982216;28;20186;-88
2022/04/21 19:17:08;;;;;;;8.20;4.33;;;;;;;;;;4971499;28;20218;-88
2022/04/21 19:20:14;;;;;;;4.90;3.50;;;;;;;;;;4981932;28;20190;-89
2022/04/21 19:23:21;;;;;;;5.30;4.17;;;;;;;;;;4971510;28;20193;-87
2022/04/21 19:26:27;;;;;;;4.27;3.60;;;;;;;;;;4981647;28;20218;-88
2022/04/21 19:29:31;;;;;;;4.83;3.53;;;;;;;;;;4971890;28;20182;-88
2022/04/21 19:32:35;;;;;;;6.03;3.40;;;;;;;;;;4982349;28;20174;-87
2022/04/21 19:35:39;;;;;;;4.80;3.70;;;;;;;;;;4985223;28;20178;-89
2022/04/21 19:38:43;;;;;;;5.17;3.53;;;;;;;;;;4985577;28;20186;-89
2022/04/21 19:41:48;;;;;;;5.57;3.83;;;;;;;;;;4986952;28;20217;-87
2022/04/21 19:44:52;;;;;;;4.13;3.60;;;;;;;;;;4975681;28;20182;-87
2022/04/21 19:47:57;;;;;;;4.00;3.50;;;;;;;;;;4987306;28;20218;-87
2022/04/21 19:51:01;;;;;;;3.87;3.40;;;;;;;;;;4974460;28;20585;-89